Time;durP1;ratioP1;P1;durP2;ratioP2;P2;SDS_P1;SDS_P2;PMS_P1;PMS_P2;Temp;Humidity;BMP_temperature;BMP_pressure;BME280_temperature;BME280_humidity;BME280_pressure;Samples;Min_cycle;Max_cycle;Signal;HPM_P1;HPM_P2
2022/08/16 00:01:36;;;;;;;11.80;5.60;;;;;;;22.94;57.74;98727.69;109107;1277;23220;-60
2022/08/16 00:04:07;;;;;;;6.70;4.30;;;;;;;22.94;57.83;98733.73;109071;1277;138791;-60
2022/08/16 00:06:36;;;;;;;9.10;4.40;;;;;;;22.92;57.74;98734.25;109158;1277;22411;-60
2022/08/16 00:09:05;;;;;;;10.70;4.00;;;;;;;22.91;57.25;98736.36;109206;1277;22509;-60
2022/08/16 00:11:32;;;;;;;8.80;4.50;;;;;;;22.94;57.07;98737.30;109104;1277;139025;-60
2022/08/16 00:13:58;;;;;;;8.20;4.20;;;;;;;22.99;56.78;98740.11;109157;1278;22463;-60
2022/08/16 00:16:27;;;;;;;6.20;4.20;;;;;;;23.06;56.55;98739.90;109051;1277;138358;-60
2022/08/16 00:19:16;;;;;;;9.40;3.90;;;;;;;23.13;56.04;98741.27;109228;1277;22481;-60
2022/08/16 00:21:43;;;;;;;26.60;4.70;;;;;;;23.21;55.68;98742.80;109041;1277;137696;-60
2022/08/16 00:24:10;;;;;;;6.90;4.10;;;;;;;23.29;55.38;98737.42;109065;1278;22437;-60
2022/08/16 00:26:39;;;;;;;4.40;3.60;;;;;;;23.37;55.01;98741.76;109213;1277;23274;-59
2022/08/16 00:29:13;;;;;;;9.00;4.60;;;;;;;23.44;54.89;98743.48;109135;1277;139165;-60
2022/08/16 00:31:45;;;;;;;9.90;4.30;;;;;;;23.49;54.42;98741.99;109193;1277;22471;-60
2022/08/16 00:34:27;;;;;;;5.80;3.40;;;;;;;23.56;54.57;98744.20;109023;1276;137775;-59
2022/08/16 00:37:14;;;;;;;5.70;3.80;;;;;;;23.59;53.97;98749.91;109094;1280;22510;-59
2022/08/16 00:39:45;;;;;;;10.40;4.80;;;;;;;23.65;53.89;98749.25;109062;1277;138563;-59
2022/08/16 00:42:13;;;;;;;6.40;4.00;;;;;;;23.70;53.65;98747.29;108982;1278;22496;-60
2022/08/16 00:45:29;;;;;;;6.80;4.30;;;;;;;23.76;53.33;98745.84;109179;1277;22397;-60
2022/08/16 00:48:06;;;;;;;13.50;4.90;;;;;;;23.82;53.10;98748.76;109008;1277;137967;-60
2022/08/16 00:50:52;;;;;;;11.80;4.30;;;;;;;23.89;52.68;98745.66;108952;1279;22550;-61
2022/08/16 00:53:21;;;;;;;9.00;4.40;;;;;;;23.97;52.52;98744.54;109055;1277;137715;-60
2022/08/16 00:55:53;;;;;;;11.30;4.60;;;;;;;24.02;52.58;98745.75;109109;1279;22525;-60
2022/08/16 00:58:20;;;;;;;9.40;4.50;;;;;;;24.06;52.30;98745.70;109115;1277;138946;-60
2022/08/16 01:01:00;;;;;;;10.20;4.10;;;;;;;24.09;52.39;98744.55;108809;1278;22815;-61
2022/08/16 01:03:27;;;;;;;10.80;4.80;;;;;;;24.10;52.24;98749.17;109218;1278;22634;-60
2022/08/16 01:05:57;;;;;;;10.60;4.80;;;;;;;24.12;52.14;98754.94;109047;1277;139620;-60
2022/08/16 01:08:24;;;;;;;11.40;4.50;;;;;;;24.13;52.11;98753.77;109071;1277;22434;-60
2022/08/16 01:11:02;;;;;;;7.90;3.80;;;;;;;24.16;52.13;98766.55;109150;1277;137464;-60
2022/08/16 01:13:31;;;;;;;10.50;4.60;;;;;;;24.16;52.67;98768.09;109100;1278;22558;-59
2022/08/16 01:16:00;;;;;;;10.20;4.50;;;;;;;24.14;53.08;98763.42;109019;1278;139813;-60
2022/08/16 01:18:34;;;;;;;9.50;4.60;;;;;;;24.10;53.49;98758.02;108993;1278;23234;-60
2022/08/16 01:21:40;;;;;;;9.30;4.60;;;;;;;24.04;54.37;98760.27;109059;1278;22465;-60
2022/08/16 01:24:22;;;;;;;13.40;4.30;;;;;;;23.94;55.26;98758.80;109091;1278;23050;-60
2022/08/16 01:27:31;;;;;;;13.50;5.10;;;;;;;23.82;56.40;98769.48;109000;1277;23284;-60
2022/08/16 01:30:11;;;;;;;10.90;4.70;;;;;;;23.69;57.04;98788.83;108971;1278;137268;-59
2022/08/16 01:32:50;;;;;;;11.30;4.80;;;;;;;23.54;57.92;98785.23;109220;1277;23156;-60
2022/08/16 01:35:47;;;;;;;10.30;4.90;;;;;;;23.40;58.76;98779.55;108992;1279;138389;-60
2022/08/16 01:38:24;;;;;;;9.20;5.00;;;;;;;23.26;59.89;98773.19;109017;1279;22467;-59
2022/08/16 01:41:05;;;;;;;8.60;5.60;;;;;;;23.13;60.70;98772.77;108995;1278;138702;-60
2022/08/16 01:43:33;;;;;;;9.70;4.60;;;;;;;22.97;61.47;98766.27;109175;1277;22450;-60
2022/08/16 01:46:02;;;;;;;11.80;5.20;;;;;;;22.83;62.23;98757.58;108916;1279;140077;-60
2022/08/16 01:48:58;;;;;;;14.20;5.00;;;;;;;22.67;63.27;98762.60;109116;1277;22431;-59
2022/08/16 01:51:26;;;;;;;5.70;4.20;;;;;;;22.53;63.85;98757.16;109041;1278;22551;-60
2022/08/16 01:53:54;;;;;;;14.70;4.90;;;;;;;22.41;64.64;98750.70;108949;1277;139309;-60
2022/08/16 01:56:29;;;;;;;7.80;4.90;;;;;;;22.29;65.34;98747.85;109081;1278;22478;-59
2022/08/16 01:58:57;;;;;;;8.90;5.30;;;;;;;22.19;66.07;98748.85;108925;1278;138071;-59
2022/08/16 02:01:25;;;;;;;14.20;5.30;;;;;;;22.10;66.50;98746.92;108982;1277;22462;-59
2022/08/16 02:03:54;;;;;;;24.30;5.40;;;;;;;21.98;66.95;98746.32;109015;1278;139528;-59
2022/08/16 02:06:36;;;;;;;10.60;4.70;;;;;;;21.87;67.33;98741.09;109144;1277;22617;-59
2022/08/16 02:09:06;;;;;;;7.20;4.70;;;;;;;21.78;67.84;98744.85;109041;1277;22446;-59
2022/08/16 02:11:38;;;;;;;10.00;4.30;;;;;;;21.69;68.14;98738.38;109131;1277;138379;-59
2022/08/16 02:14:22;;;;;;;15.20;5.80;;;;;;;21.61;68.34;98732.05;109103;1278;22450;-59
2022/08/16 02:16:54;;;;;;;12.60;5.00;;;;;;;21.54;68.53;98731.83;108989;1278;140227;-59
2022/08/16 02:19:22;;;;;;;12.30;5.20;;;;;;;21.46;68.41;98736.94;108976;1279;22623;-59
2022/08/16 02:21:50;;;;;;;9.70;4.10;;;;;;;21.42;68.29;98739.40;108892;1277;140810;-59
2022/08/16 02:24:37;;;;;;;12.90;4.50;;;;;;;21.38;68.16;98733.40;109146;1278;22436;-59
2022/08/16 02:27:07;;;;;;;10.00;4.80;;;;;;;21.36;67.84;98725.49;109242;1277;22474;-59
2022/08/16 02:29:34;;;;;;;13.40;4.90;;;;;;;21.37;67.83;98727.67;108801;1277;138327;-59
2022/08/16 02:32:01;;;;;;;7.80;4.60;;;;;;;21.37;67.54;98718.34;109041;1279;22453;-59
2022/08/16 02:34:29;;;;;;;10.60;5.30;;;;;;;21.37;67.40;98717.77;109112;1277;138176;-60
2022/08/16 02:37:06;;;;;;;;;;;;;;;21.39;67.23;98711.12;109026;1277;22467;-60
2022/08/16 02:39:33;;;;;;;9.90;4.80;;;;;;;21.40;67.16;98700.28;109120;1278;22465;-59
2022/08/16 02:42:01;;;;;;;8.50;4.70;;;;;;;21.40;67.25;98699.36;108988;1277;139768;-60
2022/08/16 02:44:28;;;;;;;7.30;4.80;;;;;;;21.41;67.16;98702.93;109107;1278;23168;-59
2022/08/16 02:46:55;;;;;;;5.80;4.30;;;;;;;21.40;67.15;98707.34;108987;1277;139149;-59
2022/08/16 02:49:22;;;;;;;12.70;4.70;;;;;;;21.40;67.04;98701.71;109060;1277;22501;-59
2022/08/16 02:52:09;;;;;;;15.80;4.80;;;;;;;21.40;66.84;98703.61;108981;1277;139009;-59
2022/08/16 02:54:50;;;;;;;12.00;4.70;;;;;;;21.40;66.81;98705.84;109105;1277;22445;-59
2022/08/16 02:57:22;;;;;;;10.70;4.80;;;;;;;21.41;66.81;98702.45;109066;1277;22527;-60
2022/08/16 02:59:49;;;;;;;9.50;4.80;;;;;;;21.40;66.88;98698.88;109001;1277;139991;-60
2022/08/16 03:02:16;;;;;;;7.60;4.70;;;;;;;21.40;66.80;98701.97;109230;1277;22506;-60
2022/08/16 03:04:43;;;;;;;9.00;4.90;;;;;;;21.40;66.76;98696.23;108896;1279;137912;-60
2022/08/16 03:07:19;;;;;;;7.50;4.80;;;;;;;21.39;66.86;98696.15;109118;1278;22501;-58
2022/08/16 03:09:53;;;;;;;9.20;5.00;;;;;;;21.38;66.84;98697.78;108979;1278;139051;-58
2022/08/16 03:12:21;;;;;;;11.00;4.40;;;;;;;21.37;66.89;98696.89;109011;1278;22578;-58
2022/08/16 03:15:03;;;;;;;8.00;4.40;;;;;;;21.35;66.72;98696.65;109093;1278;23510;-58
2022/08/16 03:17:31;;;;;;;13.20;5.20;;;;;;;21.35;66.91;98696.02;104811;1278;138259;-58
2022/08/16 03:20:01;;;;;;;6.30;5.10;;;;;;;21.34;66.80;98693.86;109136;1277;22521;-58
2022/08/16 03:22:32;;;;;;;15.70;5.00;;;;;;;21.33;66.69;98690.58;108968;1278;138940;-58
2022/08/16 03:25:06;;;;;;;8.80;4.70;;;;;;;21.32;66.62;98689.45;109150;1277;22558;-58
2022/08/16 03:27:34;;;;;;;13.20;5.00;;;;;;;21.33;66.56;98688.14;108836;1277;22350;-58
2022/08/16 03:30:06;;;;;;;12.70;4.90;;;;;;;21.34;66.42;98688.88;108918;1277;138740;-58
2022/08/16 03:32:45;;;;;;;10.60;4.90;;;;;;;21.36;66.35;98686.15;109065;1277;23160;-58
2022/08/16 03:35:14;;;;;;;11.60;5.50;;;;;;;21.38;66.31;98687.95;108662;1279;138256;-57
2022/08/16 03:37:44;;;;;;;11.80;4.80;;;;;;;21.40;66.27;98689.05;109146;1277;23189;-58
2022/08/16 03:40:31;;;;;;;13.20;5.40;;;;;;;21.43;66.09;98688.04;108998;1278;139318;-58
2022/08/16 03:43:00;;;;;;;10.00;4.80;;;;;;;21.45;65.98;98685.80;109067;1277;22433;-58
2022/08/16 03:45:49;;;;;;;10.50;4.50;;;;;;;21.48;65.78;98684.25;108927;1278;140117;-58
2022/08/16 03:48:22;;;;;;;11.90;5.00;;;;;;;21.51;65.56;98684.41;108820;1281;22728;-58
2022/08/16 03:51:10;;;;;;;15.70;4.80;;;;;;;21.56;65.49;98687.45;108899;1277;22502;-58
2022/08/16 03:53:43;;;;;;;8.50;4.90;;;;;;;21.59;65.56;98694.45;108904;1278;139396;-58
2022/08/16 03:56:25;;;;;;;13.00;5.30;;;;;;;21.61;65.57;98694.02;109183;1276;23522;-58
2022/08/16 03:58:56;;;;;;;7.70;4.60;;;;;;;21.62;65.53;98689.09;108971;1278;139930;-58
2022/08/16 04:01:26;;;;;;;8.00;4.60;;;;;;;21.63;65.64;98690.30;109105;1277;22439;-58
2022/08/16 04:03:55;;;;;;;9.30;5.20;;;;;;;21.65;65.50;98691.98;108760;1281;138839;-58
2022/08/16 04:06:22;;;;;;;9.30;5.10;;;;;;;21.65;65.61;98698.50;108221;1277;1361097;-58
2022/08/16 04:10:10;;;;;;;6.90;4.50;;;;;;;21.67;65.71;98699.91;101799;1310;545967;-59
2022/08/16 04:12:57;;;;;;;14.00;5.20;;;;;;;21.64;65.85;98698.55;103829;1287;24311;-59
2022/08/16 04:15:31;;;;;;;11.20;4.70;;;;;;;21.63;65.90;98694.03;103937;1287;22585;-58
2022/08/16 04:18:18;;;;;;;12.60;5.60;;;;;;;21.61;66.04;98694.05;103901;1287;24383;-58
2022/08/16 04:20:48;;;;;;;12.70;5.60;;;;;;;21.59;66.22;98690.81;107937;1289;22375;-58
2022/08/16 04:23:15;;;;;;;12.50;5.20;;;;;;;21.58;66.30;98690.06;107128;1286;1155294;-59
2022/08/16 04:25:43;;;;;;;15.40;5.40;;;;;;;21.56;66.47;98684.47;109056;1277;22480;-58
2022/08/16 04:28:13;;;;;;;6.10;5.40;;;;;;;21.55;66.54;98684.19;109003;1277;138115;-59
2022/08/16 04:30:59;;;;;;;11.20;5.40;;;;;;;21.55;66.87;98682.77;107231;1280;24224;-59
2022/08/16 04:33:27;;;;;;;11.80;5.50;;;;;;;21.55;67.04;98679.04;104990;1277;22602;-59
2022/08/16 04:35:57;;;;;;;14.70;5.50;;;;;;;21.56;67.24;98681.45;104531;1280;137944;-58
2022/08/16 04:38:24;;;;;;;9.30;5.30;;;;;;;21.57;67.07;98683.38;105353;1280;22579;-58
2022/08/16 04:40:51;;;;;;;10.10;5.50;;;;;;;21.59;66.86;98675.92;104745;1280;139617;-57
2022/08/16 04:43:20;;;;;;;10.20;5.30;;;;;;;21.63;66.87;98681.34;104658;1280;22601;-57
2022/08/16 04:45:49;;;;;;;9.20;5.30;;;;;;;21.69;66.60;98683.02;104740;1280;138252;-57
2022/08/16 04:48:29;;;;;;;6.80;5.30;;;;;;;21.74;66.47;98683.33;104704;1278;22738;-59
2022/08/16 04:51:02;;;;;;;10.50;5.40;;;;;;;21.79;66.54;98685.55;104606;1277;22546;-57
2022/08/16 04:53:44;;;;;;;12.10;6.30;;;;;;;21.84;66.46;98686.77;104576;1280;139438;-57
2022/08/16 04:56:12;;;;;;;12.60;5.50;;;;;;;21.87;66.54;98695.20;108952;1280;22494;-57
2022/08/16 04:58:42;;;;;;;9.70;6.10;;;;;;;21.89;66.63;98701.99;108670;1280;138321;-57
2022/08/16 05:01:13;;;;;;;12.10;5.80;;;;;;;21.89;66.66;98701.05;108949;1279;22407;-57
2022/08/16 05:03:41;;;;;;;9.40;5.60;;;;;;;21.87;66.74;98707.48;108755;1280;22414;-58
2022/08/16 05:06:35;;;;;;;10.50;5.90;;;;;;;21.84;67.08;98707.30;108993;1280;22472;-57
2022/08/16 05:09:30;;;;;;;11.40;6.30;;;;;;;21.82;67.70;98710.72;109111;1279;22474;-57
2022/08/16 05:12:03;;;;;;;8.90;6.10;;;;;;;21.80;67.93;98712.67;106149;1281;139968;-59
2022/08/16 05:14:31;;;;;;;15.50;5.40;;;;;;;21.80;68.06;98712.73;104785;1279;24885;-59
2022/08/16 05:17:20;;;;;;;10.30;6.30;;;;;;;21.80;67.98;98708.92;104766;1280;138208;-59
2022/08/16 05:19:53;;;;;;;12.00;7.00;;;;;;;21.78;68.25;98704.92;104610;1280;22693;-58
2022/08/16 05:22:29;;;;;;;11.60;5.40;;;;;;;21.77;68.40;98704.35;104502;1280;139899;-57
2022/08/16 05:24:59;;;;;;;11.80;6.00;;;;;;;21.81;68.41;98705.70;108798;1280;22479;-58
2022/08/16 05:27:26;;;;;;;8.00;5.30;;;;;;;21.87;68.39;98710.02;108539;1280;22467;-58
2022/08/16 05:29:53;;;;;;;9.90;6.10;;;;;;;21.95;67.86;98709.68;108741;1279;137728;-58
2022/08/16 05:32:30;;;;;;;18.00;5.80;;;;;;;22.05;67.50;98714.13;108761;1279;22442;-58
2022/08/16 05:35:09;;;;;;;11.60;6.10;;;;;;;22.15;67.33;98715.83;108839;1279;139763;-58
2022/08/16 05:37:41;;;;;;;10.30;5.70;;;;;;;22.25;66.85;98723.00;108653;1280;22485;-58
2022/08/16 05:40:11;;;;;;;14.20;5.80;;;;;;;22.33;66.60;98723.93;108629;1279;138773;-58
2022/08/16 05:42:39;;;;;;;13.90;5.70;;;;;;;22.38;66.47;98722.86;108736;1280;22516;-58
2022/08/16 05:45:14;;;;;;;11.40;6.40;;;;;;;22.44;66.25;98730.98;108860;1280;23279;-58
2022/08/16 05:47:48;;;;;;;9.90;5.50;;;;;;;22.49;65.78;98732.38;109033;1276;138402;-58
2022/08/16 05:50:25;;;;;;;9.20;6.20;;;;;;;22.50;65.74;98735.98;109163;1276;22482;-58
2022/08/16 05:52:59;;;;;;;11.20;6.20;;;;;;;22.49;65.60;98736.27;109033;1276;137649;-58
2022/08/16 05:55:27;;;;;;;11.50;5.60;;;;;;;22.48;65.53;98734.19;109106;1276;22462;-58
2022/08/16 05:57:56;;;;;;;15.40;6.00;;;;;;;22.48;65.37;98730.06;109010;1276;138054;-58
2022/08/16 06:00:23;;;;;;;12.20;5.40;;;;;;;22.49;65.28;98734.60;109302;1276;22646;-59
2022/08/16 06:02:51;;;;;;;10.90;5.70;;;;;;;22.50;65.19;98739.46;109201;1276;22492;-58
2022/08/16 06:05:50;;;;;;;12.30;6.00;;;;;;;22.52;65.17;98736.66;108893;1277;138401;-58
2022/08/16 06:08:20;;;;;;;12.90;5.90;;;;;;;22.56;65.36;98743.66;108441;1277;23870;-58
2022/08/16 06:10:59;;;;;;;12.60;6.10;;;;;;;22.61;65.12;98742.98;109199;1276;138200;-58
2022/08/16 06:13:36;;;;;;;;;;;;;;;22.64;64.52;98741.27;109095;1276;23077;-58
2022/08/16 06:16:08;;;;;;;12.90;5.40;;;;;;;22.65;64.89;98739.98;109000;1276;124530;-58
2022/08/16 06:18:44;;;;;;;11.00;5.30;;;;;;;22.65;64.45;98743.81;109249;1276;22416;-58
2022/08/16 06:21:12;;;;;;;9.50;5.70;;;;;;;22.64;64.11;98739.66;109173;1276;22432;-58
2022/08/16 06:23:49;;;;;;;11.00;5.70;;;;;;;22.61;64.11;98740.63;109154;1276;138942;-58
2022/08/16 06:26:20;;;;;;;13.70;5.90;;;;;;;22.59;64.29;98740.10;109212;1276;22427;-58
2022/08/16 06:28:47;;;;;;;17.30;7.20;;;;;;;22.56;64.09;98749.47;109089;1276;139062;-58
2022/08/16 06:31:22;;;;;;;14.50;7.20;;;;;;;22.52;64.20;98766.56;109264;1275;22415;-58
2022/08/16 06:33:51;;;;;;;20.10;8.10;;;;;;;22.45;66.32;98787.02;109010;1276;139886;-58
2022/08/16 06:36:18;;;;;;;11.60;6.70;;;;;;;22.24;68.54;98786.87;109158;1276;22295;-58
2022/08/16 06:39:08;;;;;;;19.50;7.60;;;;;;;21.90;69.52;98791.23;109166;1276;23164;-58
2022/08/16 06:42:04;;;;;;;18.00;7.60;;;;;;;21.61;70.87;98813.02;109045;1275;139856;-58
2022/08/16 06:44:54;;;;;;;13.10;6.90;;;;;;;21.38;71.77;98822.19;109212;1277;23156;-57
2022/08/16 06:47:50;;;;;;;11.50;6.70;;;;;;;21.21;72.62;98820.25;108959;1277;139641;-57
2022/08/16 06:50:24;;;;;;;17.20;6.90;;;;;;;21.13;73.50;98827.56;109272;1276;22459;-57
2022/08/16 06:52:56;;;;;;;16.00;7.90;;;;;;;21.06;73.93;98833.80;109018;1276;138187;-58
2022/08/16 06:55:34;;;;;;;10.00;7.40;;;;;;;21.00;74.73;98844.85;109273;1276;22443;-58
2022/08/16 06:58:07;;;;;;;10.70;7.10;;;;;;;20.97;75.44;98846.25;109049;1276;139229;-58
2022/08/16 07:00:50;;;;;;;12.60;6.70;;;;;;;20.97;76.20;98854.23;109058;1276;22472;-58
2022/08/16 07:03:19;;;;;;;19.20;7.00;;;;;;;20.97;76.73;98854.48;109087;1276;22576;-58
2022/08/16 07:05:58;;;;;;;17.20;8.00;;;;;;;20.99;76.93;98865.39;109085;1277;139824;-58
2022/08/16 07:08:30;;;;;;;18.00;7.70;;;;;;;21.00;76.97;98867.95;109135;1276;22512;-58
2022/08/16 07:10:57;;;;;;;15.90;8.60;;;;;;;21.00;76.76;98866.46;109071;1277;139281;-58
2022/08/16 07:13:28;;;;;;;12.70;7.90;;;;;;;21.00;76.82;98869.61;108585;1275;22712;-58
2022/08/16 07:16:16;;;;;;;12.50;8.90;;;;;;;20.97;77.25;98857.08;104771;1278;140441;-58
2022/08/16 07:18:46;;;;;;;15.10;8.30;;;;;;;20.90;77.69;98862.63;104830;1276;22580;-58
2022/08/16 07:21:31;;;;;;;19.00;8.50;;;;;;;20.82;78.01;98873.33;104779;1276;22582;-58
2022/08/16 07:24:19;;;;;;;15.80;8.80;;;;;;;20.71;78.61;98869.79;104891;1277;22715;-57
2022/08/16 07:26:58;;;;;;;28.90;10.50;;;;;;;20.59;79.35;98883.58;105685;1277;23995;-57
2022/08/16 07:29:27;;;;;;;32.60;9.60;;;;;;;20.46;80.21;98885.71;109083;1276;138999;-57
2022/08/16 07:31:58;;;;;;;17.90;9.00;;;;;;;20.34;80.85;98887.36;109138;1276;23245;-57
2022/08/16 07:34:27;;;;;;;14.70;9.20;;;;;;;20.27;81.34;98891.67;109211;1276;140113;-57
2022/08/16 07:37:06;;;;;;;16.40;8.80;;;;;;;20.23;81.77;98886.32;109191;1276;22461;-57
2022/08/16 07:39:55;;;;;;;14.30;7.90;;;;;;;20.21;82.27;98894.77;108991;1276;139470;-57
2022/08/16 07:42:23;;;;;;;13.30;7.40;;;;;;;20.20;82.31;98893.46;109135;1276;22474;-58
2022/08/16 07:45:00;;;;;;;14.00;7.20;;;;;;;20.18;82.78;98896.48;109302;1276;23033;-57
2022/08/16 07:47:29;;;;;;;15.20;6.80;;;;;;;20.15;83.22;98895.08;109025;1276;139135;-58
2022/08/16 07:49:58;;;;;;;11.70;6.40;;;;;;;20.11;83.71;98896.14;109447;1274;22461;-58
2022/08/16 07:52:31;;;;;;;16.20;7.40;;;;;;;20.09;84.04;98899.27;109144;1274;138139;-57
2022/08/16 07:54:58;;;;;;;14.20;6.40;;;;;;;20.07;84.18;98898.64;109353;1274;22384;-57
2022/08/16 07:57:25;;;;;;;16.60;6.60;;;;;;;20.05;84.07;98895.66;109321;1275;22414;-58
2022/08/16 07:59:52;;;;;;;6.60;4.80;;;;;;;20.05;84.04;98894.95;109096;1275;140671;-58
2022/08/16 08:02:24;;;;;;;9.20;4.70;;;;;;;20.07;83.94;98896.68;109341;1277;22607;-58
2022/08/16 08:04:55;;;;;;;11.50;5.40;;;;;;;20.07;83.83;98898.28;109201;1274;139004;-58
2022/08/16 08:07:24;;;;;;;13.00;4.50;;;;;;;20.07;83.92;98892.58;109331;1275;22612;-58
2022/08/16 08:09:54;;;;;;;10.30;4.50;;;;;;;20.08;83.97;98886.29;109235;1275;137962;-58
2022/08/16 08:12:22;;;;;;;11.20;4.70;;;;;;;20.07;83.95;98882.46;109254;1277;22455;-58
2022/08/16 08:15:00;;;;;;;13.30;5.10;;;;;;;20.06;84.12;98881.63;109366;1275;22657;-57
2022/08/16 08:17:29;;;;;;;8.40;4.70;;;;;;;20.05;84.18;98872.35;108958;1276;138317;-58
2022/08/16 08:20:14;;;;;;;10.10;5.40;;;;;;;20.05;84.26;98868.34;109321;1275;23214;-58
2022/08/16 08:22:55;;;;;;;8.60;4.20;;;;;;;20.06;84.32;98877.42;109069;1277;138285;-58
2022/08/16 08:25:28;;;;;;;5.50;4.20;;;;;;;20.05;84.33;98881.20;108587;1277;22574;-58
2022/08/16 08:28:16;;;;;;;9.90;4.80;;;;;;;20.04;84.58;98881.40;109104;1274;138998;-58
2022/08/16 08:30:46;;;;;;;7.70;4.30;;;;;;;20.04;84.91;98883.87;109264;1274;22448;-60
2022/08/16 08:33:21;;;;;;;9.20;4.20;;;;;;;20.05;85.03;98881.19;109219;1274;22418;-58
2022/08/16 08:35:49;;;;;;;8.40;5.50;;;;;;;20.04;85.16;98880.55;109166;1276;138105;-58
2022/08/16 08:38:17;;;;;;;10.20;5.40;;;;;;;20.03;85.30;98877.50;109351;1274;22474;-58
2022/08/16 08:41:06;;;;;;;11.40;4.70;;;;;;;20.01;85.47;98878.77;109095;1276;139332;-58
2022/08/16 08:43:37;;;;;;;13.30;5.00;;;;;;;19.99;85.60;98876.22;109277;1277;22455;-58
2022/08/16 08:46:08;;;;;;;12.10;5.30;;;;;;;19.96;85.79;98873.95;109141;1276;139585;-58
2022/08/16 08:48:45;;;;;;;13.60;5.60;;;;;;;19.94;86.08;98876.08;109131;1275;22504;-58
2022/08/16 08:51:27;;;;;;;9.30;4.80;;;;;;;19.92;86.26;98875.05;109133;1276;23214;-58
2022/08/16 08:54:03;;;;;;;13.70;5.20;;;;;;;19.89;86.45;98874.48;109136;1277;137737;-58
2022/08/16 08:56:36;;;;;;;11.40;6.70;;;;;;;19.88;86.75;98874.55;106591;1277;24246;-58
2022/08/16 08:59:12;;;;;;;10.00;6.50;;;;;;;19.86;87.22;98871.06;104810;1277;138870;-57
2022/08/16 09:01:48;;;;;;;14.10;7.20;;;;;;;19.85;87.62;98874.81;104967;1275;24235;-58
2022/08/16 09:04:38;;;;;;;12.90;7.10;;;;;;;19.83;87.89;98881.66;104909;1277;139128;-58
2022/08/16 09:07:06;;;;;;;10.70;8.10;;;;;;;19.80;88.05;98883.36;104901;1277;24203;-58
2022/08/16 09:09:34;;;;;;;13.80;7.00;;;;;;;19.76;88.48;98891.27;105041;1277;22581;-59
2022/08/16 09:12:08;;;;;;;8.50;5.50;;;;;;;19.73;88.48;98891.23;109082;1278;22488;-58
2022/08/16 09:15:06;;;;;;;7.50;4.90;;;;;;;19.67;88.41;98892.08;109255;1276;22469;-58
2022/08/16 09:17:33;;;;;;;7.60;4.60;;;;;;;19.61;88.44;98902.92;109136;1277;139814;-58
2022/08/16 09:20:26;;;;;;;7.50;4.50;;;;;;;19.57;88.71;98905.80;109124;1274;22538;-59
2022/08/16 09:22:53;;;;;;;8.50;5.40;;;;;;;19.55;88.98;98907.13;109041;1277;139075;-59
2022/08/16 09:25:31;;;;;;;12.90;7.20;;;;;;;19.55;89.23;98912.11;109200;1276;22442;-59
2022/08/16 09:28:03;;;;;;;8.60;7.20;;;;;;;19.57;89.56;98910.64;109024;1277;139951;-59
2022/08/16 09:30:41;;;;;;;9.40;7.70;;;;;;;19.63;89.80;98915.20;109154;1276;22286;-59
2022/08/16 09:33:11;;;;;;;10.40;7.40;;;;;;;19.68;90.07;98912.66;109247;1276;22559;-59
2022/08/16 09:35:40;;;;;;;12.00;6.10;;;;;;;19.75;90.26;98911.77;108388;1276;139150;-58
2022/08/16 09:38:10;;;;;;;7.60;6.00;;;;;;;19.81;90.18;98916.08;109247;1277;22416;-59
2022/08/16 09:40:47;;;;;;;9.30;7.50;;;;;;;19.88;90.31;98912.27;109198;1277;138824;-59
2022/08/16 09:43:17;;;;;;;11.30;7.00;;;;;;;19.96;90.71;98911.33;109278;1276;23465;-58
2022/08/16 09:46:06;;;;;;;9.70;6.90;;;;;;;20.06;90.67;98909.06;109111;1276;139439;-58
2022/08/16 09:48:53;;;;;;;12.40;7.20;;;;;;;20.18;90.48;98915.82;109274;1276;23196;-58
2022/08/16 09:51:25;;;;;;;11.80;7.20;;;;;;;20.26;90.16;98922.95;109220;1277;22566;-58
2022/08/16 09:53:56;;;;;;;10.10;7.70;;;;;;;20.33;89.35;98927.80;109151;1276;138662;-58
2022/08/16 09:56:29;;;;;;;11.90;7.30;;;;;;;20.40;89.62;98923.92;109272;1277;23139;-58
2022/08/16 09:58:58;;;;;;;11.70;7.20;;;;;;;20.49;89.33;98923.94;109187;1277;139104;-58
2022/08/16 10:01:33;;;;;;;12.00;6.60;;;;;;;20.56;88.74;98924.67;109221;1277;22368;-59
2022/08/16 10:04:00;;;;;;;10.70;7.00;;;;;;;20.62;88.45;98922.52;109124;1277;139458;-58
2022/08/16 10:06:33;;;;;;;10.30;7.20;;;;;;;20.66;88.21;98922.98;109237;1276;22465;-58
2022/08/16 10:09:02;;;;;;;11.40;6.60;;;;;;;20.68;87.71;98919.64;109349;1275;22515;-58
2022/08/16 10:14:19;;;;;;;11.20;8.20;;;;;;;20.68;87.14;98919.26;109272;1277;22572;-58
2022/08/16 10:16:50;;;;;;;13.30;8.60;;;;;;;20.69;87.09;98918.98;109209;1275;138117;-58
2022/08/16 10:19:27;;;;;;;13.30;8.70;;;;;;;20.70;86.98;98915.84;109249;1277;22486;-58
2022/08/16 10:21:58;;;;;;;13.10;8.90;;;;;;;20.71;86.42;98911.48;109237;1276;138990;-58
2022/08/16 10:24:30;;;;;;;11.40;8.30;;;;;;;20.73;86.43;98905.15;109285;1276;23207;-58
2022/08/16 10:26:57;;;;;;;14.40;8.20;;;;;;;20.76;86.45;98913.65;109286;1277;22473;-58
2022/08/16 10:29:44;;;;;;;8.70;6.60;;;;;;;20.82;86.60;98918.27;109170;1277;138869;-58
2022/08/16 10:32:31;;;;;;;10.50;7.00;;;;;;;20.89;86.01;98912.75;109345;1275;22494;-58
2022/08/16 10:34:58;;;;;;;11.50;6.90;;;;;;;20.93;85.38;98914.33;109189;1277;141386;-58
2022/08/16 10:37:25;;;;;;;9.20;6.80;;;;;;;20.98;85.33;98920.11;105084;1278;22571;-58
2022/08/16 10:40:07;;;;;;;11.20;6.20;;;;;;;21.00;84.85;98926.05;104819;1278;138420;-58
2022/08/16 10:42:54;;;;;;;11.50;6.80;;;;;;;21.00;84.74;98933.73;109211;1277;22262;-59
2022/08/16 10:45:20;;;;;;;11.50;6.60;;;;;;;20.98;84.72;98935.16;109271;1277;22537;-58
2022/08/16 10:47:48;;;;;;;12.90;6.60;;;;;;;20.96;84.67;98946.29;109237;1277;139140;-58
2022/08/16 10:50:28;;;;;;;11.90;7.00;;;;;;;20.89;84.65;98946.63;109300;1276;22428;-58
2022/08/16 10:52:57;;;;;;;9.10;6.80;;;;;;;20.82;84.76;98955.70;109250;1276;138423;-59
2022/08/16 10:55:25;;;;;;;10.90;6.40;;;;;;;20.75;84.94;98961.87;109352;1276;23280;-58
2022/08/16 10:58:12;;;;;;;11.50;7.30;;;;;;;20.68;85.18;98966.87;109169;1276;138487;-59
2022/08/16 11:00:42;;;;;;;9.60;7.00;;;;;;;20.62;85.60;98970.55;109376;1276;22464;-58
2022/08/16 11:03:12;;;;;;;10.10;7.00;;;;;;;20.58;85.89;98965.33;109295;1277;22444;-58
2022/08/16 11:05:59;;;;;;;10.20;7.50;;;;;;;20.56;86.25;98965.15;109188;1277;138254;-58
2022/08/16 11:08:26;;;;;;;13.10;7.00;;;;;;;20.54;86.42;98964.52;109267;1276;22458;-58
2022/08/16 11:11:03;;;;;;;8.50;6.90;;;;;;;20.55;86.72;98965.26;109169;1277;138507;-58
2022/08/16 11:13:45;;;;;;;10.90;7.30;;;;;;;20.58;86.99;98965.30;109237;1277;22445;-58
2022/08/16 11:16:32;;;;;;;11.40;7.70;;;;;;;20.62;87.07;98963.26;109156;1277;138741;-58
2022/08/16 11:19:19;;;;;;;13.70;7.70;;;;;;;20.68;87.12;98961.65;109314;1276;22671;-58
2022/08/16 11:21:48;;;;;;;11.90;7.70;;;;;;;20.75;86.92;98962.41;109178;1277;138804;-58
2022/08/16 11:24:39;;;;;;;12.50;7.10;;;;;;;20.83;86.30;98967.03;109301;1277;22452;-58
2022/08/16 11:27:14;;;;;;;10.70;7.70;;;;;;;20.89;85.88;98968.80;109301;1277;22436;-58
2022/08/16 11:29:47;;;;;;;9.90;7.50;;;;;;;20.96;85.32;98968.39;109126;1277;138878;-58
2022/08/16 11:32:16;;;;;;;14.50;7.60;;;;;;;21.02;85.66;98970.61;109289;1276;22721;-58
2022/08/16 11:34:55;;;;;;;12.50;7.00;;;;;;;21.09;85.30;98970.05;109109;1277;139219;-58
2022/08/16 11:38:04;;;;;;;10.60;7.10;;;;;;;21.15;84.89;98964.04;109229;1277;22587;-58
2022/08/16 11:40:55;;;;;;;13.30;7.00;;;;;;;21.21;84.10;98958.79;109028;1275;138574;-58
2022/08/16 11:43:31;;;;;;;9.20;6.90;;;;;;;21.25;83.63;98959.17;109268;1276;22494;-58
2022/08/16 11:46:00;;;;;;;13.20;8.30;;;;;;;21.29;83.27;98959.55;109171;1277;139147;-58
2022/08/16 11:48:47;;;;;;;13.40;7.80;;;;;;;21.32;83.06;98963.56;109361;1275;23199;-57
2022/08/16 11:51:14;;;;;;;14.20;8.40;;;;;;;21.35;82.90;98969.52;109248;1277;23414;-57
2022/08/16 11:53:40;;;;;;;10.30;7.30;;;;;;;21.40;82.69;98971.88;109212;1276;139251;-57
2022/08/16 11:56:07;;;;;;;11.40;7.40;;;;;;;21.43;82.27;98975.73;109302;1276;22474;-56